createdAt,value
2018-03-11T00:02:27.389Z,99644.03
2018-03-11T00:04:55.496Z,99651.19
2018-03-11T00:07:23.608Z,99645.63
2018-03-11T00:09:51.716Z,99653.44
2018-03-11T00:12:19.835Z,99654.74
2018-03-11T00:14:47.943Z,99655.66
2018-03-11T00:17:16.117Z,99654.70
2018-03-11T00:19:44.211Z,99652.79
2018-03-11T00:22:12.334Z,99649.55
2018-03-11T00:24:40.459Z,99649.11
2018-03-11T00:27:08.559Z,99648.95
2018-03-11T00:29:36.668Z,99647.47
2018-03-11T00:32:04.773Z,99646.77
2018-03-11T00:34:32.941Z,99653.89
2018-03-11T00:37:01.052Z,99647.09
2018-03-11T00:39:29.170Z,99640.09
2018-03-11T00:41:57.330Z,99629.91
2018-03-11T00:44:25.462Z,99639.34
2018-03-11T00:46:53.564Z,99634.06
2018-03-11T00:49:21.678Z,99631.22
2018-03-11T00:51:49.811Z,99624.30
2018-03-11T00:54:18.109Z,99617.70
2018-03-11T00:56:46.204Z,99617.53
2018-03-11T00:59:14.332Z,99610.16
2018-03-11T01:01:42.445Z,99609.17
2018-03-11T01:04:10.697Z,99602.02
2018-03-11T01:06:38.811Z,99591.22
2018-03-11T01:09:06.944Z,99588.87
2018-03-11T01:11:35.112Z,99586.01
2018-03-11T01:14:03.225Z,99584.39
2018-03-11T01:16:31.349Z,99579.33
2018-03-11T01:18:59.464Z,99569.38
2018-03-11T01:21:27.578Z,99561.55
2018-03-11T01:23:55.687Z,99566.29
2018-03-11T01:26:23.808Z,99564.24
2018-03-11T01:28:51.927Z,99559.52
2018-03-11T01:31:20.053Z,99553.58
2018-03-11T01:33:48.176Z,99553.99
2018-03-11T01:36:16.294Z,99555.73
2018-03-11T01:38:44.443Z,99549.33
2018-03-11T01:41:12.617Z,99548.63
2018-03-11T01:43:40.715Z,99550.33
2018-03-11T01:46:08.849Z,99543.73
2018-03-11T01:48:36.980Z,99548.85
2018-03-11T01:51:05.079Z,99539.94
2018-03-11T01:53:33.192Z,99533.89
2018-03-11T01:56:01.304Z,99533.20
2018-03-11T01:58:29.473Z,99532.84
2018-03-11T02:00:57.532Z,99527.69
2018-03-11T02:03:25.648Z,99519.83
2018-03-11T02:05:53.770Z,99516.84
2018-03-11T02:08:21.889Z,99510.91
2018-03-11T02:10:49.990Z,99502.95
2018-03-11T02:13:18.096Z,99494.31
2018-03-11T02:15:46.225Z,99483.81
2018-03-11T02:18:14.338Z,99479.91
2018-03-11T02:20:42.455Z,99481.11
2018-03-11T02:23:10.579Z,99467.23
2018-03-11T02:25:38.716Z,99463.18
2018-03-11T02:28:06.830Z,99462.00
2018-03-11T02:30:34.974Z,99457.04
2018-03-11T02:33:03.146Z,99452.45
2018-03-11T02:35:31.267Z,99452.86
2018-03-11T02:37:59.389Z,99448.23
2018-03-11T02:40:27.511Z,99442.84
2018-03-11T02:42:55.631Z,99437.70
2018-03-11T02:45:23.735Z,99436.67
2018-03-11T02:47:51.858Z,99430.02
2018-03-11T02:50:19.965Z,99433.78
2018-03-11T02:52:48.087Z,99433.00
2018-03-11T02:55:16.191Z,99430.69
2018-03-11T02:57:44.370Z,99420.98
2018-03-11T03:00:12.480Z,99417.99
2018-03-11T03:02:40.608Z,99417.42
2018-03-11T03:05:08.731Z,99414.87
2018-03-11T03:07:36.854Z,99409.19
2018-03-11T03:10:04.975Z,99406.19
2018-03-11T03:12:33.083Z,99407.34
2018-03-11T03:15:01.214Z,99405.98
2018-03-11T03:17:29.338Z,99406.14
2018-03-11T03:19:57.450Z,99406.92
2018-03-11T03:22:25.876Z,99397.73
2018-03-11T03:24:53.985Z,99403.25
2018-03-11T03:27:22.113Z,99392.36
2018-03-11T03:29:50.219Z,99388.51
2018-03-11T03:32:18.353Z,99384.05
2018-03-11T03:34:46.477Z,99383.19
2018-03-11T03:37:14.600Z,99380.61
2018-03-11T03:39:42.719Z,99374.23
2018-03-11T03:42:10.826Z,99368.49
2018-03-11T03:44:38.934Z,99368.63
2018-03-11T03:47:07.065Z,99364.47
2018-03-11T03:49:35.173Z,99356.39
2018-03-11T03:52:03.312Z,99351.43
2018-03-11T03:54:31.421Z,99352.41
2018-03-11T03:56:59.521Z,99350.69
2018-03-11T03:59:27.644Z,99349.42
2018-03-11T04:01:55.748Z,99348.33
2018-03-11T04:04:23.856Z,99340.63
2018-03-11T04:06:52.017Z,99339.45
2018-03-11T04:09:20.137Z,99328.50
2018-03-11T04:11:48.253Z,99323.00
2018-03-11T04:14:16.376Z,99325.37
2018-03-11T04:16:44.643Z,99326.28
2018-03-11T04:19:12.743Z,99325.27
2018-03-11T04:21:40.870Z,99318.08
2018-03-11T04:24:08.989Z,99310.84
2018-03-11T04:26:37.101Z,99302.61
2018-03-11T04:29:05.683Z,99290.31
2018-03-11T04:31:33.788Z,99282.13
2018-03-11T04:34:02.302Z,99280.55
2018-03-11T04:36:30.434Z,99274.34
2018-03-11T04:38:58.546Z,99274.22
2018-03-11T04:41:26.677Z,99275.84
2018-03-11T04:43:54.794Z,99266.61
2018-03-11T04:46:22.900Z,99269.97
2018-03-11T04:48:51.034Z,99264.33
2018-03-11T04:51:19.142Z,99260.98
2018-03-11T04:53:47.247Z,99255.10
2018-03-11T04:56:15.382Z,99246.23
2018-03-11T04:58:43.475Z,99243.23
2018-03-11T05:01:11.592Z,99244.47
2018-03-11T05:03:39.730Z,99240.54
2018-03-11T05:06:07.831Z,99229.98
2018-03-11T05:08:35.933Z,99228.48
2018-03-11T05:11:04.051Z,99219.19
2018-03-11T05:13:32.160Z,99222.73
2018-03-11T05:16:00.288Z,99222.23
2018-03-11T05:18:28.395Z,99212.95
2018-03-11T05:20:56.507Z,99201.98
2018-03-11T05:23:24.639Z,99191.91
2018-03-11T05:25:52.739Z,99195.80
2018-03-11T05:28:20.847Z,99204.52
2018-03-11T05:30:48.980Z,99210.53
2018-03-11T05:33:17.095Z,99205.48
2018-03-11T05:35:45.213Z,99212.21
2018-03-11T05:38:13.349Z,99206.28
2018-03-11T05:40:41.450Z,99208.13
2018-03-11T05:43:09.567Z,99213.91
2018-03-11T05:45:37.675Z,99204.20
2018-03-11T05:48:05.795Z,99197.48
2018-03-11T05:50:33.923Z,99199.66
2018-03-11T05:53:02.038Z,99187.50
2018-03-11T05:55:30.173Z,99181.67
2018-03-11T05:57:58.325Z,99172.98
2018-03-11T06:00:26.441Z,99172.94
2018-03-11T06:02:54.557Z,99179.37
2018-03-11T06:05:22.668Z,99173.98
2018-03-11T06:07:50.798Z,99170.55
2018-03-11T06:10:18.897Z,99165.84
2018-03-11T06:12:47.042Z,99161.53
2018-03-11T06:15:15.155Z,99162.75
2018-03-11T06:17:43.266Z,99159.89
2018-03-11T06:20:11.374Z,99152.27
2018-03-11T06:22:39.501Z,99161.48
2018-03-11T06:25:07.629Z,99146.28
2018-03-11T06:27:35.747Z,99147.00
2018-03-11T06:30:03.865Z,99147.34
2018-03-11T06:32:32.041Z,99143.58
2018-03-11T06:35:00.091Z,99139.97
2018-03-11T06:37:28.191Z,99130.59
2018-03-11T06:39:56.377Z,99127.64
2018-03-11T06:42:24.497Z,99124.44
2018-03-11T06:44:52.638Z,99120.54
2018-03-11T06:47:20.743Z,99115.40
2018-03-11T06:49:48.869Z,99115.16
2018-03-11T06:52:17.044Z,99112.05
2018-03-11T06:54:45.146Z,99122.03
2018-03-11T06:57:13.274Z,99114.20
2018-03-11T06:59:41.396Z,99110.70
2018-03-11T07:02:09.550Z,99110.16
2018-03-11T07:04:37.647Z,99106.23
2018-03-11T07:07:05.760Z,99096.54
2018-03-11T07:09:33.874Z,99088.54
2018-03-11T07:12:02.068Z,99097.55
2018-03-11T07:14:30.177Z,99093.13
2018-03-11T07:16:58.298Z,99093.86
2018-03-11T07:19:26.420Z,99091.66
2018-03-11T07:21:54.512Z,99083.48
2018-03-11T07:24:22.628Z,99083.80
2018-03-11T07:26:50.741Z,99065.05
2018-03-11T07:29:18.864Z,99054.14
2018-03-11T07:31:46.973Z,99059.11
2018-03-11T07:34:15.146Z,99072.17
2018-03-11T07:36:43.267Z,99069.70
2018-03-11T07:39:11.381Z,99059.11
2018-03-11T07:41:39.493Z,99055.02
2018-03-11T07:44:07.613Z,99059.20
2018-03-11T07:46:35.753Z,99062.75
2018-03-11T07:49:03.879Z,99066.09
2018-03-11T07:51:31.976Z,99066.70
2018-03-11T07:54:00.094Z,99070.75
2018-03-11T07:56:28.187Z,99069.61
2018-03-11T07:58:56.328Z,99075.84
2018-03-11T08:01:24.437Z,99082.45
2018-03-11T08:03:52.648Z,99081.88
2018-03-11T08:06:20.779Z,99086.34
2018-03-11T08:08:48.877Z,99089.21
2018-03-11T08:11:17.901Z,99085.72
2018-03-11T08:13:46.051Z,99083.09
2018-03-11T08:16:14.163Z,99090.80
2018-03-11T08:18:42.264Z,99086.83
2018-03-11T08:21:10.381Z,99087.58
2018-03-11T08:23:38.484Z,99088.50
2018-03-11T08:26:06.580Z,99086.83
2018-03-11T08:28:34.705Z,99089.06
2018-03-11T08:31:02.818Z,99090.03
2018-03-11T08:33:30.926Z,99092.91
2018-03-11T08:35:59.046Z,99090.00
2018-03-11T08:38:27.148Z,99094.34
2018-03-11T08:40:55.253Z,99087.56
2018-03-11T08:43:23.351Z,99083.78
2018-03-11T08:45:51.473Z,99090.39
2018-03-11T08:48:19.644Z,99085.78
2018-03-11T08:50:47.694Z,99082.45
2018-03-11T08:53:15.824Z,99086.36
2018-03-11T08:55:43.916Z,99079.23
2018-03-11T08:58:12.043Z,99087.08
2018-03-11T09:00:40.149Z,99085.08
2018-03-11T09:03:08.247Z,99087.13
2018-03-11T09:05:36.386Z,99095.91
2018-03-11T09:08:04.489Z,99088.89
2018-03-11T09:10:32.644Z,99093.48
2018-03-11T09:13:00.690Z,99095.91
2018-03-11T09:15:28.838Z,99097.88
2018-03-11T09:17:56.925Z,99094.13
2018-03-11T09:20:25.054Z,99093.30
2018-03-11T09:22:53.161Z,99093.55
2018-03-11T09:25:21.259Z,99079.33
2018-03-11T09:27:49.377Z,99074.54
2018-03-11T09:30:17.554Z,99075.88
2018-03-11T09:32:45.718Z,99086.81
2018-03-11T09:35:13.828Z,99084.51
2018-03-11T09:37:41.929Z,99086.91
2018-03-11T09:40:10.041Z,99080.80
2018-03-11T09:42:38.148Z,99080.47
2018-03-11T09:45:06.269Z,99082.23
2018-03-11T09:47:34.386Z,99069.28
2018-03-11T09:50:02.489Z,99065.67
2018-03-11T09:52:30.645Z,99058.72
2018-03-11T09:54:58.745Z,99052.89
2018-03-11T09:57:26.877Z,99063.07
2018-03-11T09:59:54.975Z,99050.55
2018-03-11T10:02:23.090Z,99050.66
2018-03-11T10:04:51.197Z,99057.78
2018-03-11T10:07:19.311Z,99060.70
2018-03-11T10:09:47.400Z,99056.05
2018-03-11T10:12:15.516Z,99058.23
2018-03-11T10:14:43.636Z,99058.14
2018-03-11T10:17:11.756Z,99053.38
2018-03-11T10:19:39.856Z,99050.25
2018-03-11T10:22:07.979Z,99043.34
2018-03-11T10:24:36.078Z,99046.22
2018-03-11T10:27:04.181Z,99056.93
2018-03-11T10:29:32.294Z,99058.11
2018-03-11T10:32:00.402Z,99050.05
2018-03-11T10:34:28.590Z,99050.45
2018-03-11T10:36:57.621Z,99066.96
2018-03-11T10:39:25.761Z,99055.13
2018-03-11T10:41:53.870Z,99048.25
2018-03-11T10:44:21.981Z,99053.57
2018-03-11T10:46:50.103Z,99059.62
2018-03-11T10:49:21.507Z,99059.62
2018-03-11T10:51:49.614Z,99059.19
2018-03-11T10:54:17.761Z,99061.45
2018-03-11T10:56:45.850Z,99060.70
2018-03-11T10:59:13.983Z,99059.52
2018-03-11T11:01:46.074Z,99053.59
2018-03-11T11:04:14.979Z,99064.34
2018-03-11T11:06:43.100Z,99066.64
2018-03-11T11:09:11.213Z,99060.83
2018-03-11T11:11:39.345Z,99069.44
2018-03-11T11:14:07.441Z,99070.42
2018-03-11T11:16:35.572Z,99073.92
2018-03-11T11:19:03.766Z,99059.95
2018-03-11T11:21:31.865Z,99067.63
2018-03-11T11:23:59.986Z,99067.06
2018-03-11T11:26:28.081Z,99069.01
2018-03-11T11:28:56.197Z,99069.16
2018-03-11T11:31:24.313Z,99076.61
2018-03-11T11:33:52.421Z,99069.59
2018-03-11T11:36:20.691Z,99080.55
2018-03-11T11:38:48.792Z,99069.25
2018-03-11T11:41:16.887Z,99067.94
2018-03-11T11:43:47.966Z,99065.81
2018-03-11T11:46:16.058Z,99071.09
2018-03-11T11:48:44.186Z,99077.63
2018-03-11T11:51:12.301Z,99073.13
2018-03-11T11:53:40.397Z,99078.48
2018-03-11T11:56:10.496Z,99070.03
2018-03-11T11:58:38.568Z,99072.31
2018-03-11T12:01:06.668Z,99067.00
2018-03-11T12:03:34.793Z,99064.44
2018-03-11T12:06:02.883Z,99069.14
2018-03-11T12:08:30.988Z,99070.91
2018-03-11T12:10:59.160Z,99053.88
2018-03-11T12:13:27.276Z,99073.48
2018-03-11T12:15:55.380Z,99053.54
2018-03-11T12:18:23.499Z,99051.52
2018-03-11T12:20:51.619Z,99050.78
2018-03-11T12:23:19.716Z,99041.44
2018-03-11T12:25:47.867Z,99038.58
2018-03-11T12:28:16.036Z,99030.59
2018-03-11T12:30:44.130Z,99032.03
2018-03-11T12:33:12.244Z,99033.73
2018-03-11T12:35:40.357Z,99024.70
2018-03-11T12:38:08.457Z,99026.26
2018-03-11T12:40:36.577Z,99022.51
2018-03-11T12:43:04.706Z,99019.48
2018-03-11T12:45:32.806Z,99014.66
2018-03-11T12:48:00.936Z,99009.84
2018-03-11T12:50:29.037Z,99008.64
2018-03-11T12:52:57.123Z,99012.99
2018-03-11T12:55:25.235Z,99006.71
2018-03-11T12:57:53.322Z,99007.61
2018-03-11T13:00:21.442Z,99016.11
2018-03-11T13:02:49.536Z,99008.97
2018-03-11T13:05:17.624Z,99001.74
2018-03-11T13:07:45.732Z,99001.28
2018-03-11T13:10:13.857Z,99004.63
2018-03-11T13:12:41.952Z,99003.80
2018-03-11T13:15:10.064Z,99003.90
2018-03-11T13:17:38.146Z,99004.72
2018-03-11T13:20:21.327Z,98998.83
2018-03-11T13:22:49.431Z,98995.34
2018-03-11T13:25:17.498Z,98995.66
2018-03-11T13:30:50.682Z,98983.71
2018-03-11T13:33:30.752Z,98983.07
2018-03-11T13:35:58.838Z,98980.88
2018-03-11T13:38:38.714Z,98985.26
2018-03-11T13:41:06.776Z,98986.00
2018-03-11T13:43:34.869Z,98978.52
2018-03-11T13:46:14.713Z,98982.03
2018-03-11T13:48:42.814Z,98971.02
2018-03-11T13:51:10.900Z,98962.78
2018-03-11T13:53:48.881Z,98961.30
2018-03-11T13:56:16.984Z,98954.53
2018-03-11T13:58:45.242Z,98951.34
2018-03-11T14:01:13.339Z,98949.11
2018-03-11T14:03:41.457Z,98947.58
2018-03-11T14:06:09.608Z,98960.12
2018-03-11T14:08:37.687Z,98968.14
2018-03-11T14:11:05.813Z,98969.23
2018-03-11T14:13:33.943Z,98968.27
2018-03-11T14:16:02.054Z,98964.91
2018-03-11T14:18:30.156Z,98963.40
2018-03-11T14:20:58.398Z,98962.61
2018-03-11T14:23:26.488Z,98975.92
2018-03-11T14:25:54.635Z,98975.77
2018-03-11T14:28:22.759Z,98988.83
2018-03-11T14:30:50.911Z,98988.03
2018-03-11T14:33:19.018Z,98990.70
2018-03-11T14:35:47.123Z,98997.17
2018-03-11T14:38:15.227Z,98995.71
2018-03-11T14:40:43.333Z,99000.42
2018-03-11T14:43:11.439Z,98997.23
2018-03-11T14:45:39.539Z,98988.88
2018-03-11T14:48:07.652Z,98996.15
2018-03-11T14:50:35.809Z,98995.87
2018-03-11T14:53:07.673Z,98989.41
2018-03-11T14:55:36.375Z,98991.48
2018-03-11T14:58:04.473Z,98987.00
2018-03-11T15:00:32.566Z,98990.70
2018-03-11T15:03:00.693Z,98981.68
2018-03-11T15:05:28.807Z,98984.55
2018-03-11T15:07:56.914Z,98985.12
2018-03-11T15:10:25.041Z,98981.38
2018-03-11T15:12:53.173Z,98974.95
2018-03-11T15:15:21.267Z,98980.78
2018-03-11T15:17:49.388Z,98975.77
2018-03-11T15:20:17.479Z,98980.84
2018-03-11T15:22:45.601Z,98973.26
2018-03-11T15:25:13.690Z,98968.11
2018-03-11T15:27:41.789Z,98966.31
2018-03-11T15:30:09.918Z,98965.95
2018-03-11T15:32:38.013Z,98971.39
2018-03-11T15:35:06.150Z,98968.11
2018-03-11T15:37:34.256Z,98966.27
2018-03-11T15:40:02.360Z,98970.35
2018-03-11T15:42:30.489Z,98960.12
2018-03-11T15:44:58.601Z,98965.70
2018-03-11T15:47:26.702Z,98964.24
2018-03-11T15:49:54.814Z,98968.93
2018-03-11T15:52:23.001Z,98973.33
2018-03-11T15:54:51.221Z,98970.72
2018-03-11T15:57:19.678Z,98967.42
2018-03-11T15:59:47.779Z,98969.83
2018-03-11T16:02:15.954Z,98963.98
2018-03-11T16:04:44.162Z,98968.47
2018-03-11T16:07:12.336Z,98962.78
2018-03-11T16:09:40.502Z,98961.89
2018-03-11T16:12:08.613Z,98961.58
2018-03-11T16:14:36.801Z,98966.01
2018-03-11T16:17:04.916Z,98971.48
2018-03-11T16:19:33.042Z,98972.99
2018-03-11T16:22:01.150Z,98973.80
2018-03-11T16:24:39.617Z,98975.20
2018-03-11T16:27:00.934Z,98977.12
2018-03-11T16:29:29.044Z,98979.98
2018-03-11T16:31:57.169Z,98977.73
2018-03-11T16:34:25.277Z,98976.42
2018-03-11T16:36:53.396Z,98974.08
2018-03-11T16:39:21.527Z,98980.83
2018-03-11T16:41:49.646Z,98978.06
2018-03-11T16:44:17.878Z,98974.88
2018-03-11T16:46:45.999Z,98980.78
2018-03-11T16:49:14.119Z,98978.15
2018-03-11T16:51:42.212Z,98974.48
2018-03-11T16:54:10.311Z,98986.76
2018-03-11T16:56:38.420Z,98985.17
2018-03-11T16:59:06.527Z,98991.06
2018-03-11T17:01:34.646Z,98988.21
2018-03-11T17:04:02.767Z,98979.96
2018-03-11T17:06:30.899Z,98978.77
2018-03-11T17:08:58.992Z,98976.85
2018-03-11T17:11:27.091Z,98977.09
2018-03-11T17:13:55.202Z,98979.42
2018-03-11T17:16:23.299Z,98978.59
2018-03-11T17:18:51.412Z,98975.02
2018-03-11T17:21:19.515Z,98979.59
2018-03-11T17:23:47.620Z,98979.78
2018-03-11T17:26:15.716Z,98978.03
2018-03-11T17:28:43.829Z,98985.30
2018-03-11T17:31:11.958Z,98990.25
2018-03-11T17:33:40.281Z,98985.42
2018-03-11T17:36:08.375Z,98981.83
2018-03-11T17:38:36.483Z,98983.98
2018-03-11T17:41:04.603Z,98983.78
2018-03-11T17:43:32.716Z,98977.82
2018-03-11T17:46:00.821Z,98985.23
2018-03-11T17:48:28.925Z,98980.79
2018-03-11T17:50:57.033Z,98979.23
2018-03-11T17:53:25.138Z,98985.72
2018-03-11T17:55:53.270Z,98980.42
2018-03-11T17:58:21.378Z,98979.76
2018-03-11T18:00:49.475Z,98988.66
2018-03-11T18:03:17.581Z,98985.45
2018-03-11T18:05:45.692Z,98991.44
2018-03-11T18:08:13.786Z,98985.78
2018-03-11T18:10:41.886Z,98991.80
2018-03-11T18:13:09.975Z,98992.49
2018-03-11T18:15:38.092Z,98983.31
2018-03-11T18:18:06.253Z,98995.23
2018-03-11T18:20:34.366Z,98989.03
2018-03-11T18:23:02.485Z,98987.33
2018-03-11T18:25:30.576Z,98992.92
2018-03-11T18:27:58.684Z,98992.94
2018-03-11T18:30:26.792Z,98995.30
2018-03-11T18:32:54.898Z,98994.91
2018-03-11T18:35:23.027Z,99001.16
2018-03-11T18:37:51.129Z,99002.52
2018-03-11T18:40:19.230Z,99005.52
2018-03-11T18:42:47.339Z,99005.95
2018-03-11T18:45:15.469Z,99004.23
2018-03-11T18:47:43.593Z,98999.55
2018-03-11T18:50:11.680Z,99001.16
2018-03-11T18:52:39.772Z,98987.66
2018-03-11T18:55:07.901Z,98991.74
2018-03-11T18:57:36.007Z,98997.14
2018-03-11T19:00:07.089Z,98994.60
2018-03-11T19:02:35.207Z,98991.47
2018-03-11T19:05:03.298Z,98987.84
2018-03-11T19:07:31.422Z,98979.74
2018-03-11T19:09:59.516Z,98980.75
2018-03-11T19:12:27.634Z,98976.34
2018-03-11T19:14:55.754Z,98981.04
2018-03-11T19:17:23.860Z,98976.00
2018-03-11T19:19:51.955Z,98976.00
2018-03-11T19:22:20.064Z,98976.38
2018-03-11T19:24:48.183Z,98977.03
2018-03-11T19:27:16.275Z,98972.45
2018-03-11T19:29:44.395Z,98976.25
2018-03-11T19:32:12.511Z,98976.64
2018-03-11T19:34:40.611Z,98978.55
2018-03-11T19:37:08.700Z,98977.88
2018-03-11T19:39:36.818Z,98974.53
2018-03-11T19:42:04.929Z,98966.45
2018-03-11T19:44:33.034Z,98972.66
2018-03-11T19:47:05.175Z,98964.05
2018-03-11T19:49:33.291Z,98964.34
2018-03-11T19:52:01.394Z,98965.67
2018-03-11T19:54:29.491Z,98964.75
2018-03-11T19:56:57.597Z,98965.31
2018-03-11T19:59:25.702Z,98960.58
2018-03-11T20:01:53.827Z,98965.87
2018-03-11T20:04:21.907Z,98956.56
2018-03-11T20:06:50.018Z,98958.47
2018-03-11T20:09:18.118Z,98957.56
2018-03-11T20:11:46.246Z,98962.41
2018-03-11T20:14:14.366Z,98957.78
2018-03-11T20:16:42.627Z,98954.18
2018-03-11T20:19:10.731Z,98953.89
2018-03-11T20:21:38.853Z,98947.16
2018-03-11T20:24:06.943Z,98951.92
2018-03-11T20:26:35.126Z,98947.06
2018-03-11T20:29:03.303Z,98947.91
2018-03-11T20:31:31.410Z,98944.81
2018-03-11T20:33:59.620Z,98947.20
2018-03-11T20:36:27.696Z,98952.62
2018-03-11T20:38:55.810Z,98958.70
2018-03-11T20:41:23.923Z,98953.97
2018-03-11T20:43:52.022Z,98951.38
2018-03-11T20:46:20.183Z,98956.00
2018-03-11T20:48:48.332Z,98959.20
2018-03-11T20:51:19.987Z,98958.86
2018-03-11T20:53:48.116Z,98957.50
2018-03-11T20:56:16.241Z,98950.39
2018-03-11T20:58:44.348Z,98957.27
2018-03-11T21:01:12.462Z,98959.83
2018-03-11T21:03:40.563Z,98951.87
2018-03-11T21:06:08.671Z,98956.84
2018-03-11T21:08:36.773Z,98951.61
2018-03-11T21:11:04.875Z,98955.78
2018-03-11T21:13:33.010Z,98947.56
2018-03-11T21:16:01.090Z,98962.26
2018-03-11T21:18:29.221Z,98957.95
2018-03-11T21:20:57.331Z,98955.25
2018-03-11T21:23:25.445Z,98956.09
2018-03-11T21:25:53.632Z,98953.68
2018-03-11T21:28:21.766Z,98959.45
2018-03-11T21:30:49.899Z,98964.56
2018-03-11T21:33:17.999Z,98963.77
2018-03-11T21:35:46.991Z,98964.34
2018-03-11T21:38:18.792Z,98966.38
2018-03-11T21:40:46.879Z,98963.98
2018-03-11T21:43:14.976Z,98963.44
2018-03-11T21:45:43.100Z,98967.23
2018-03-11T21:48:11.234Z,98960.88
2018-03-11T21:50:39.323Z,98964.13
2018-03-11T21:53:07.443Z,98964.41
2018-03-11T21:55:35.570Z,98965.88
2018-03-11T21:58:03.661Z,98964.69
2018-03-11T22:00:31.786Z,98955.27
2018-03-11T22:02:59.917Z,98952.99
2018-03-11T22:05:28.021Z,98955.05
2018-03-11T22:07:56.162Z,98953.12
2018-03-11T22:10:24.264Z,98947.75
2018-03-11T22:12:52.351Z,98950.33
2018-03-11T22:15:20.476Z,98950.87
2018-03-11T22:17:48.582Z,98948.05
2018-03-11T22:20:16.981Z,98945.89
2018-03-11T22:22:45.101Z,98938.52
2018-03-11T22:25:13.221Z,98942.83
2018-03-11T22:27:41.316Z,98941.09
2018-03-11T22:30:09.476Z,98933.42
2018-03-11T22:32:37.583Z,98933.67
2018-03-11T22:35:05.681Z,98936.91
2018-03-11T22:37:33.779Z,98932.73
2018-03-11T22:40:01.909Z,98932.88
2018-03-11T22:42:30.014Z,98928.71
2018-03-11T22:44:58.113Z,98929.91
2018-03-11T22:47:26.219Z,98921.97
2018-03-11T22:49:54.337Z,98920.50
2018-03-11T22:52:22.446Z,98921.87
2018-03-11T22:54:50.569Z,98922.30
2018-03-11T22:57:18.663Z,98917.31
2018-03-11T22:59:46.772Z,98919.61
2018-03-11T23:02:14.879Z,98918.91
2018-03-11T23:04:42.976Z,98916.09
2018-03-11T23:07:11.086Z,98919.76
2018-03-11T23:09:39.183Z,98910.58
2018-03-11T23:12:07.291Z,98910.47
2018-03-11T23:14:35.395Z,98904.82
2018-03-11T23:17:03.509Z,98902.92
2018-03-11T23:19:31.624Z,98903.60
2018-03-11T23:21:59.711Z,98904.67
2018-03-11T23:24:27.832Z,98900.22
2018-03-11T23:26:55.928Z,98904.39
2018-03-11T23:29:24.028Z,98901.56
2018-03-11T23:31:52.143Z,98906.95
2018-03-11T23:34:20.245Z,98898.60
2018-03-11T23:36:48.357Z,98899.56
2018-03-11T23:39:16.577Z,98895.92
2018-03-11T23:41:44.716Z,98899.02
2018-03-11T23:44:12.808Z,98894.05
2018-03-11T23:46:40.933Z,98899.58
2018-03-11T23:49:12.681Z,98895.55
2018-03-11T23:51:40.791Z,98897.55
2018-03-11T23:54:08.905Z,98898.23
2018-03-11T23:56:37.003Z,98900.79
2018-03-11T23:59:05.131Z,98900.10
